Terminal Aerodrome Forecast
Issued by NWS

Home | Current Version | Previous Version | Text Only | Print | Product List | Glossary On
Versions: 1 2 3 4 5 6 7 8 9 10 11 12 13 14 15 16 17 18 19 20 21 22 23 24 25 26 27 28 29 30 31 32 33 34 35 36 37 38 39 40 41 42 43
000
FTUS41 KRNK 281122
TAFLWB
TAF
KLWB 281122Z 2812/2912 31005KT P6SM -SN SCT020 OVC030
      TEMPO 2812/2813 4SM -SHSN BKN017
     FM281400 28007KT P6SM BKN025
     FM281700 27006KT P6SM SCT030 BKN060
     FM290000 00000KT P6SM SCT060 BKN100=

USA.gov is the U.S. government's official web portal to all federal, state and local government web resources and services.